createdAt,value
2024-05-09T00:00:42.882Z,41.35
2024-05-09T00:03:30.875Z,41.37
2024-05-09T00:05:58.934Z,41.35
2024-05-09T00:08:27.012Z,41.48
2024-05-09T00:10:55.073Z,41.26
2024-05-09T00:13:23.202Z,41.40
2024-05-09T00:15:51.273Z,41.24
2024-05-09T00:18:19.459Z,41.45
2024-05-09T00:20:47.594Z,41.43
2024-05-09T00:23:15.765Z,41.33
2024-05-09T00:25:44.299Z,41.17
2024-05-09T00:28:12.889Z,41.38
2024-05-09T00:30:41.235Z,41.38
2024-05-09T00:33:10.582Z,41.22
2024-05-09T00:35:39.828Z,41.23
2024-05-09T00:38:08.123Z,41.29
2024-05-09T00:40:40.825Z,41.23
2024-05-09T00:43:11.806Z,41.33
2024-05-09T00:45:40.521Z,41.39
2024-05-09T00:48:09.874Z,41.22
2024-05-09T00:50:41.198Z,41.33
2024-05-09T00:53:13.184Z,41.19
2024-05-09T00:55:41.433Z,41.31
2024-05-09T00:58:10.571Z,41.35
2024-05-09T01:00:40.541Z,41.34
2024-05-09T01:03:11.787Z,41.18
2024-05-09T01:05:42.839Z,41.26
2024-05-09T01:08:11.562Z,41.25
2024-05-09T01:10:42.838Z,41.12
2024-05-09T01:13:13.183Z,41.20
2024-05-09T01:15:41.177Z,41.09
2024-05-09T01:18:13.450Z,41.24
2024-05-09T01:20:44.599Z,41.24
2024-05-09T01:23:15.341Z,41.18
2024-05-09T01:25:45.143Z,41.04
2024-05-09T01:28:13.934Z,41.12
2024-05-09T01:30:42.035Z,41.10
2024-05-09T01:33:11.739Z,40.99
2024-05-09T01:35:42.296Z,41.01
2024-05-09T01:38:16.894Z,40.95
2024-05-09T01:40:45.256Z,40.84
2024-05-09T01:43:13.549Z,40.97
2024-05-09T01:45:41.830Z,41.09
2024-05-09T01:48:10.787Z,40.80
2024-05-09T01:50:42.139Z,41.08
2024-05-09T01:53:12.759Z,40.91
2024-05-09T01:55:41.311Z,40.76
2024-05-09T01:58:09.669Z,40.87
2024-05-09T02:00:42.029Z,40.82
2024-05-09T02:03:15.024Z,40.77
2024-05-09T02:05:46.888Z,40.88
2024-05-09T02:08:17.472Z,40.70
2024-05-09T02:10:47.157Z,40.83
2024-05-09T02:13:15.906Z,40.61
2024-05-09T02:15:44.084Z,40.72
2024-05-09T02:18:12.879Z,40.66
2024-05-09T02:20:42.271Z,40.55
2024-05-09T02:23:11.104Z,40.58
2024-05-09T02:25:39.596Z,40.69
2024-05-09T02:28:07.477Z,40.67
2024-05-09T02:30:40.013Z,40.49
2024-05-09T02:33:11.666Z,40.62
2024-05-09T02:35:42.058Z,40.62
2024-05-09T02:38:10.659Z,40.57
2024-05-09T02:40:40.077Z,40.59
2024-05-09T02:43:10.364Z,40.50
2024-05-09T02:45:40.284Z,40.61
2024-05-09T02:48:12.621Z,40.63
2024-05-09T02:50:41.857Z,40.62
2024-05-09T02:53:13.283Z,40.72
2024-05-09T02:55:41.733Z,40.52
2024-05-09T02:58:10.393Z,40.56
2024-05-09T03:00:41.421Z,40.42
2024-05-09T03:03:13.278Z,40.67
2024-05-09T03:05:44.640Z,40.47
2024-05-09T03:08:13.273Z,40.48
2024-05-09T03:10:41.515Z,40.43
2024-05-09T03:13:14.644Z,40.53
2024-05-09T03:15:44.431Z,40.49
2024-05-09T03:18:12.948Z,40.41
2024-05-09T03:20:43.460Z,40.46
2024-05-09T03:23:11.594Z,40.46
2024-05-09T03:25:39.648Z,40.45
2024-05-09T03:28:07.627Z,40.43
2024-05-09T03:30:41.069Z,40.48
2024-05-09T03:33:16.755Z,40.44
2024-05-09T03:35:45.394Z,40.36
2024-05-09T03:38:13.510Z,40.18
2024-05-09T03:40:49.042Z,40.25
2024-05-09T03:43:18.111Z,40.22
2024-05-09T03:45:47.633Z,39.94
2024-05-09T03:48:15.822Z,40.28
2024-05-09T03:50:44.164Z,40.10
2024-05-09T03:53:12.999Z,40.15
2024-05-09T03:55:41.258Z,40.06
2024-05-09T03:58:09.304Z,39.90
2024-05-09T04:00:39.519Z,39.85
2024-05-09T04:03:11.069Z,40.03
2024-05-09T04:05:42.589Z,39.95
2024-05-09T04:08:14.888Z,39.91
2024-05-09T04:10:43.179Z,39.90
2024-05-09T04:22:31.577Z,40.02
2024-05-09T04:24:59.571Z,40.12
2024-05-09T04:27:27.597Z,40.04
2024-05-09T04:29:55.484Z,40.19
2024-05-09T04:32:23.623Z,40.00
2024-05-09T04:34:51.576Z,40.03
2024-05-09T04:37:20.165Z,40.08
2024-05-09T04:39:48.154Z,39.85
2024-05-09T04:42:16.127Z,39.93
2024-05-09T04:44:44.096Z,39.74
2024-05-09T04:47:12.192Z,39.79
2024-05-09T04:49:42.137Z,39.60
2024-05-09T04:52:10.101Z,39.56
2024-05-09T04:54:37.984Z,39.56
2024-05-09T04:57:05.954Z,39.75
2024-05-09T04:59:34.279Z,39.98
2024-05-09T05:02:02.345Z,40.25
2024-05-09T05:04:30.986Z,40.48
2024-05-09T05:07:02.153Z,40.65
2024-05-09T05:09:30.787Z,40.78
2024-05-09T05:11:59.681Z,40.69
2024-05-09T05:14:27.813Z,40.91
2024-05-09T05:16:55.960Z,40.93
2024-05-09T05:19:24.022Z,40.90
2024-05-09T05:21:52.072Z,41.10
2024-05-09T05:24:20.026Z,41.01
2024-05-09T05:26:48.081Z,41.09
2024-05-09T05:29:18.482Z,41.00
2024-05-09T05:31:47.450Z,41.17
2024-05-09T05:34:15.524Z,41.08
2024-05-09T05:36:43.532Z,41.15
2024-05-09T05:39:11.918Z,41.19
2024-05-09T05:41:39.885Z,41.26
2024-05-09T05:44:10.288Z,41.22
2024-05-09T05:46:38.363Z,41.15
2024-05-09T05:49:06.549Z,41.34
2024-05-09T05:51:34.466Z,41.62
2024-05-09T05:54:02.436Z,41.91
2024-05-09T05:56:30.431Z,41.86
2024-05-09T05:58:58.522Z,41.80
2024-05-09T06:01:26.708Z,41.90
2024-05-09T06:03:54.727Z,42.21
2024-05-09T06:06:22.683Z,42.05
2024-05-09T06:08:51.059Z,41.68
2024-05-09T06:11:18.993Z,41.02
2024-05-09T06:13:47.159Z,40.66
2024-05-09T06:16:15.197Z,40.44
2024-05-09T06:18:43.189Z,40.48
2024-05-09T06:21:11.210Z,40.34
2024-05-09T06:23:48.717Z,40.42
2024-05-09T06:26:16.867Z,40.20
2024-05-09T06:28:44.912Z,40.06
2024-05-09T06:31:12.971Z,39.95
2024-05-09T06:33:41.789Z,39.90
2024-05-09T06:36:09.777Z,39.64
2024-05-09T06:38:37.876Z,39.61
2024-05-09T06:41:06.101Z,39.67
2024-05-09T06:43:35.030Z,39.67
2024-05-09T06:46:03.400Z,39.59
2024-05-09T06:48:31.522Z,39.49
2024-05-09T06:51:00.586Z,39.54
2024-05-09T06:53:28.674Z,39.33
2024-05-09T06:55:56.629Z,39.34
2024-05-09T06:58:24.519Z,38.97
2024-05-09T07:00:52.631Z,38.72
2024-05-09T07:03:20.872Z,38.72
2024-05-09T07:05:49.778Z,38.82
2024-05-09T07:08:18.222Z,39.04
2024-05-09T07:10:46.590Z,39.06
2024-05-09T07:13:15.449Z,39.23
2024-05-09T07:15:43.741Z,39.51
2024-05-09T07:18:16.925Z,39.61
2024-05-09T07:20:47.553Z,39.74
2024-05-09T07:23:16.287Z,39.84
2024-05-09T07:25:44.702Z,39.96
2024-05-09T07:28:16.756Z,39.99
2024-05-09T07:30:45.134Z,40.20
2024-05-09T07:33:21.370Z,40.14
2024-05-09T07:35:51.003Z,40.37
2024-05-09T07:38:19.165Z,40.39
2024-05-09T07:40:47.327Z,40.55
2024-05-09T07:43:15.665Z,40.66
2024-05-09T07:45:51.740Z,40.78
2024-05-09T07:52:38.317Z,40.81
2024-05-09T07:53:46.954Z,40.88
2024-05-09T07:56:18.938Z,40.97
2024-05-09T07:58:49.716Z,41.03
2024-05-09T08:01:17.916Z,41.15
2024-05-09T08:03:46.403Z,41.09
2024-05-09T08:06:14.832Z,40.97
2024-05-09T08:08:42.947Z,40.83
2024-05-09T08:11:10.872Z,40.81
2024-05-09T08:13:38.867Z,40.93
2024-05-09T08:16:07.223Z,40.96
2024-05-09T08:18:35.527Z,40.99
2024-05-09T08:21:03.909Z,40.84
2024-05-09T08:23:31.898Z,41.08
2024-05-09T08:26:00.668Z,41.03
2024-05-09T08:28:28.778Z,41.13
2024-05-09T08:30:57.083Z,41.05
2024-05-09T08:33:25.399Z,41.12
2024-05-09T08:35:55.022Z,41.16
2024-05-09T08:38:22.950Z,41.09
2024-05-09T08:40:50.947Z,41.08
2024-05-09T08:43:19.596Z,41.09
2024-05-09T08:45:49.411Z,41.18
2024-05-09T08:48:17.657Z,41.26
2024-05-09T08:50:46.072Z,41.23
2024-05-09T08:53:16.838Z,41.35
2024-05-09T08:55:48.978Z,41.35
2024-05-09T08:58:20.555Z,41.24
2024-05-09T09:00:49.447Z,41.24
2024-05-09T09:03:18.923Z,41.05
2024-05-09T09:06:06.294Z,40.98
2024-05-09T09:08:34.338Z,41.10
2024-05-09T09:11:02.257Z,40.96
2024-05-09T09:13:30.187Z,41.05
2024-05-09T09:15:59.121Z,41.13
2024-05-09T09:18:28.114Z,40.82
2024-05-09T09:20:56.371Z,40.30
2024-05-09T09:23:24.299Z,39.62
2024-05-09T09:25:52.299Z,39.05
2024-05-09T09:28:22.801Z,38.05
2024-05-09T09:30:50.950Z,37.89
2024-05-09T09:33:19.664Z,37.52
2024-05-09T09:35:47.647Z,36.64
2024-05-09T09:38:16.884Z,36.31
2024-05-09T09:40:49.517Z,36.32
2024-05-09T09:43:22.622Z,35.93
2024-05-09T09:45:53.006Z,35.77
2024-05-09T09:48:21.739Z,35.55
2024-05-09T09:50:51.398Z,34.81
2024-05-09T09:53:19.556Z,34.27
2024-05-09T09:55:47.607Z,32.46
2024-05-09T09:58:18.597Z,29.47
2024-05-09T10:00:46.831Z,28.81
2024-05-09T10:03:14.989Z,29.54
2024-05-09T10:05:46.254Z,30.92
2024-05-09T10:08:15.611Z,31.60
2024-05-09T10:10:46.152Z,31.92
2024-05-09T10:13:14.567Z,32.07
2024-05-09T10:15:55.525Z,32.23
2024-05-09T10:18:29.544Z,32.17
2024-05-09T10:20:59.947Z,32.33
2024-05-09T10:23:29.042Z,32.35
2024-05-09T10:25:57.814Z,32.29
2024-05-09T10:28:29.541Z,32.28
2024-05-09T10:31:15.862Z,32.21
2024-05-09T10:33:49.370Z,32.38
2024-05-09T10:36:22.322Z,32.20
2024-05-09T10:38:50.919Z,32.44
2024-05-09T10:41:19.602Z,32.35
2024-05-09T10:43:47.758Z,32.40
2024-05-09T10:46:16.521Z,32.42
2024-05-09T10:48:45.129Z,32.35
2024-05-09T10:51:13.317Z,32.49
2024-05-09T10:53:45.185Z,32.50
2024-05-09T10:56:13.560Z,32.53
2024-05-09T10:58:41.672Z,32.19
2024-05-09T11:01:11.031Z,32.47
2024-05-09T11:03:39.784Z,32.32
2024-05-09T11:06:09.413Z,32.27
2024-05-09T11:08:37.609Z,32.32
2024-05-09T11:11:07.421Z,32.43
2024-05-09T11:13:38.984Z,32.64
2024-05-09T11:16:16.660Z,32.42
2024-05-09T11:18:52.836Z,32.28
2024-05-09T11:21:21.006Z,32.04
2024-05-09T11:23:48.907Z,32.03
2024-05-09T11:26:19.204Z,31.96
2024-05-09T11:28:47.407Z,32.08
2024-05-09T11:31:15.426Z,32.05
2024-05-09T11:33:44.836Z,32.37
2024-05-09T11:36:12.950Z,32.50
2024-05-09T11:38:41.084Z,32.65
2024-05-09T11:41:09.147Z,32.68
2024-05-09T11:43:37.146Z,32.61
2024-05-09T11:46:05.200Z,32.80
2024-05-09T11:48:33.325Z,32.61
2024-05-09T11:51:01.301Z,32.76
2024-05-09T11:53:29.248Z,32.94
2024-05-09T11:55:57.223Z,32.88
2024-05-09T11:58:25.172Z,32.73
2024-05-09T12:00:53.298Z,32.82
2024-05-09T12:03:21.578Z,32.69
2024-05-09T12:05:49.771Z,32.59
2024-05-09T12:08:17.836Z,32.89
2024-05-09T12:10:46.481Z,33.00
2024-05-09T12:13:14.597Z,33.06
2024-05-09T12:15:42.624Z,33.03
2024-05-09T12:18:10.674Z,33.05
2024-05-09T12:20:40.051Z,33.13
2024-05-09T12:23:09.714Z,33.10
2024-05-09T12:25:39.159Z,33.12
2024-05-09T12:28:08.078Z,32.94
2024-05-09T12:30:40.694Z,33.09
2024-05-09T12:33:13.741Z,33.23
2024-05-09T12:35:44.311Z,33.15
2024-05-09T12:38:15.175Z,33.28
2024-05-09T12:40:43.774Z,33.25
2024-05-09T12:52:38.613Z,33.53
2024-05-09T12:55:06.570Z,33.68
2024-05-09T12:57:34.679Z,33.61
2024-05-09T13:00:04.051Z,33.66
2024-05-09T13:02:32.289Z,33.80
2024-05-09T13:05:00.455Z,33.75
2024-05-09T13:07:28.545Z,33.76
2024-05-09T13:09:56.595Z,33.72
2024-05-09T13:12:26.237Z,33.82
2024-05-09T13:14:54.164Z,33.79
2024-05-09T13:17:22.306Z,33.85
2024-05-09T13:19:50.314Z,33.94
2024-05-09T13:22:18.189Z,34.15
2024-05-09T13:24:46.203Z,33.89
2024-05-09T13:27:14.150Z,33.72
2024-05-09T13:29:44.207Z,33.83
2024-05-09T13:32:12.464Z,33.85
2024-05-09T13:34:40.568Z,33.89
2024-05-09T13:37:08.533Z,33.94
2024-05-09T13:39:36.776Z,34.08
2024-05-09T13:42:04.909Z,34.02
2024-05-09T13:44:33.060Z,34.07
2024-05-09T13:47:00.951Z,34.11
2024-05-09T13:49:28.951Z,34.11
2024-05-09T13:51:57.011Z,34.33
2024-05-09T13:54:24.980Z,34.36
2024-05-09T13:56:53.015Z,34.18
2024-05-09T13:59:21.016Z,34.45
2024-05-09T14:01:49.220Z,34.37
2024-05-09T14:04:17.812Z,34.39
2024-05-09T14:06:46.044Z,34.45
2024-05-09T14:09:14.161Z,34.50
2024-05-09T14:11:42.426Z,34.56
2024-05-09T14:14:10.433Z,34.64
2024-05-09T14:16:38.913Z,34.77
2024-05-09T14:19:06.980Z,34.72
2024-05-09T14:21:35.052Z,34.77
2024-05-09T14:24:02.991Z,34.78
2024-05-09T14:26:30.995Z,34.70
2024-05-09T14:28:58.989Z,34.80
2024-05-09T14:31:27.122Z,34.66
2024-05-09T14:33:55.430Z,34.66
2024-05-09T14:36:23.488Z,34.67
2024-05-09T14:38:51.469Z,34.75
2024-05-09T14:41:19.468Z,34.73
2024-05-09T14:43:47.493Z,34.52
2024-05-09T14:46:15.535Z,34.63
2024-05-09T14:48:43.570Z,34.62
2024-05-09T14:51:11.509Z,34.66
2024-05-09T14:53:39.385Z,34.61
2024-05-09T14:56:07.582Z,34.63
2024-05-09T14:58:35.440Z,34.49
2024-05-09T15:01:03.449Z,34.52
2024-05-09T15:03:31.611Z,34.52
2024-05-09T15:05:59.727Z,34.54
2024-05-09T15:08:27.767Z,34.55
2024-05-09T15:10:55.978Z,34.71
2024-05-09T15:13:24.588Z,34.49
2024-05-09T15:15:52.867Z,34.45
2024-05-09T15:18:21.155Z,34.37
2024-05-09T15:20:49.475Z,34.49
2024-05-09T15:23:17.482Z,34.63
2024-05-09T15:25:45.507Z,34.64
2024-05-09T15:28:13.537Z,34.65
2024-05-09T15:30:45.511Z,34.65
2024-05-09T15:33:14.994Z,34.59
2024-05-09T15:35:43.002Z,34.71
2024-05-09T15:38:10.949Z,34.58
2024-05-09T15:40:40.725Z,34.67
2024-05-09T15:43:10.869Z,34.71
2024-05-09T15:45:41.012Z,34.59
2024-05-09T15:48:09.998Z,34.80
2024-05-09T15:50:41.104Z,34.78
2024-05-09T15:53:12.167Z,34.79
2024-05-09T15:55:41.912Z,34.88
2024-05-09T15:58:10.282Z,34.66
2024-05-09T16:00:41.734Z,34.96
2024-05-09T16:03:12.739Z,34.87
2024-05-09T16:05:45.820Z,34.87
2024-05-09T16:08:14.802Z,34.79
2024-05-09T16:10:45.761Z,34.89
2024-05-09T16:13:15.387Z,34.68
2024-05-09T16:15:43.752Z,34.66
2024-05-09T16:18:12.275Z,34.75
2024-05-09T16:20:42.350Z,34.73
2024-05-09T16:23:12.511Z,34.74
2024-05-09T16:25:45.050Z,34.86
2024-05-09T16:28:13.090Z,34.75
2024-05-09T16:30:41.573Z,34.63
2024-05-09T16:33:11.653Z,34.85
2024-05-09T16:35:40.191Z,34.81
2024-05-09T16:38:08.286Z,34.86
2024-05-09T16:40:39.942Z,34.84
2024-05-09T16:43:10.675Z,34.85
2024-05-09T16:45:40.257Z,34.77
2024-05-09T16:48:08.958Z,34.82
2024-05-09T16:50:37.424Z,34.84
2024-05-09T16:53:06.518Z,34.92
2024-05-09T16:55:35.746Z,34.82
2024-05-09T16:58:04.997Z,34.74
2024-05-09T17:00:40.652Z,34.84
2024-05-09T17:03:15.758Z,34.70
2024-05-09T17:05:48.393Z,34.81
2024-05-09T17:08:17.698Z,34.70
2024-05-09T17:10:46.443Z,34.92
2024-05-09T17:13:14.812Z,34.84
2024-05-09T17:15:42.795Z,34.89
2024-05-09T17:18:11.003Z,34.93
2024-05-09T17:20:39.143Z,34.98
2024-05-09T17:23:12.369Z,34.78
2024-05-09T17:25:40.791Z,34.93
2024-05-09T17:28:09.090Z,34.81
2024-05-09T17:30:39.067Z,34.84
2024-05-09T17:33:10.052Z,34.98
2024-05-09T17:35:39.029Z,34.94
2024-05-09T17:38:07.237Z,34.94
2024-05-09T17:40:37.407Z,34.95
2024-05-09T17:43:08.984Z,35.08
2024-05-09T17:45:40.077Z,34.91
2024-05-09T17:48:09.533Z,35.02
2024-05-09T17:50:38.459Z,35.02
2024-05-09T17:53:06.867Z,35.14
2024-05-09T17:55:35.491Z,35.11
2024-05-09T17:58:04.724Z,35.18
2024-05-09T18:00:38.939Z,35.13
2024-05-09T18:03:13.845Z,35.04
2024-05-09T18:05:44.763Z,35.03
2024-05-09T18:08:13.859Z,34.93
2024-05-09T18:10:42.484Z,35.04
2024-05-09T18:13:11.756Z,35.20
2024-05-09T18:15:40.464Z,34.97
2024-05-09T18:18:09.107Z,35.24
2024-05-09T18:20:43.631Z,34.97
2024-05-09T18:23:16.056Z,34.96
2024-05-09T18:25:46.190Z,35.12
2024-05-09T18:28:14.733Z,35.09
2024-05-09T18:30:42.947Z,35.10
2024-05-09T18:33:11.718Z,34.96
2024-05-09T18:35:43.807Z,35.06
2024-05-09T18:38:12.017Z,34.94
2024-05-09T18:40:42.024Z,35.04
2024-05-09T18:43:11.898Z,35.00
2024-05-09T18:45:40.321Z,35.08
2024-05-09T18:48:09.658Z,35.07
2024-05-09T18:50:40.331Z,34.98
2024-05-09T18:53:10.840Z,35.05
2024-05-09T18:55:39.816Z,34.95
2024-05-09T18:58:08.036Z,35.00
2024-05-09T19:00:39.062Z,35.07
2024-05-09T19:03:12.305Z,34.92
2024-05-09T19:05:43.728Z,35.07
2024-05-09T19:08:14.238Z,35.08
2024-05-09T19:10:42.392Z,35.12
2024-05-09T19:13:12.993Z,35.04
2024-05-09T19:15:43.243Z,35.05
2024-05-09T19:18:13.044Z,35.17
2024-05-09T19:20:42.047Z,35.13
2024-05-09T19:23:11.239Z,35.17
2024-05-09T19:25:39.228Z,35.16
2024-05-09T19:28:07.204Z,35.10
2024-05-09T19:30:40.268Z,35.02
2024-05-09T19:33:12.706Z,35.17
2024-05-09T19:35:42.619Z,35.09
2024-05-09T19:38:11.523Z,34.95
2024-05-09T19:40:39.581Z,35.06
2024-05-09T19:43:07.805Z,34.98
2024-05-09T19:45:36.587Z,35.14
2024-05-09T19:48:06.299Z,35.16
2024-05-09T19:50:41.776Z,35.14
2024-05-09T19:53:13.566Z,35.12
2024-05-09T19:55:41.870Z,35.07
2024-05-09T19:58:10.362Z,35.07
2024-05-09T20:00:41.061Z,35.03
2024-05-09T20:03:12.285Z,35.18
2024-05-09T20:05:42.555Z,35.08
2024-05-09T20:08:10.937Z,35.02
2024-05-09T20:10:39.086Z,35.12
2024-05-09T20:13:08.199Z,35.00
2024-05-09T20:15:37.544Z,35.06
2024-05-09T20:18:06.473Z,35.08
2024-05-09T20:20:39.373Z,35.00
2024-05-09T20:23:11.257Z,34.89
2024-05-09T20:25:39.994Z,34.87
2024-05-09T20:28:08.148Z,34.91
2024-05-09T20:30:36.737Z,34.95
2024-05-09T20:33:09.459Z,35.04
2024-05-09T20:35:38.265Z,34.97
2024-05-09T20:38:06.222Z,34.90
2024-05-09T20:40:37.694Z,34.99
2024-05-09T20:43:08.570Z,34.97
2024-05-09T20:45:36.912Z,34.95
2024-05-09T20:48:06.095Z,34.90
2024-05-09T20:50:39.313Z,35.01
2024-05-09T20:53:11.010Z,35.01
2024-05-09T20:55:39.768Z,35.18
2024-05-09T20:58:08.445Z,35.15
2024-05-09T21:00:40.541Z,35.11
2024-05-09T21:03:12.812Z,35.04
2024-05-09T21:05:42.044Z,35.15
2024-05-09T21:08:10.127Z,35.23
2024-05-09T21:10:38.372Z,35.18
2024-05-09T21:13:07.294Z,35.07
2024-05-09T21:15:36.203Z,35.16
2024-05-09T21:18:05.003Z,35.29
2024-05-09T21:20:34.370Z,35.39
2024-05-09T21:23:03.274Z,35.38
2024-05-09T21:25:31.613Z,35.19
2024-05-09T21:28:00.227Z,35.25
2024-05-09T21:30:38.254Z,35.16
2024-05-09T21:33:12.801Z,35.37
2024-05-09T21:35:43.119Z,35.38
2024-05-09T21:38:13.114Z,35.45
2024-05-09T21:40:41.431Z,35.40
2024-05-09T21:43:09.498Z,35.47
2024-05-09T21:45:37.862Z,35.58
2024-05-09T21:48:06.943Z,35.57
2024-05-09T21:50:40.366Z,35.54
2024-05-09T21:53:11.549Z,35.57
2024-05-09T21:55:39.962Z,35.58
2024-05-09T21:58:08.282Z,35.58
2024-05-09T22:00:39.167Z,35.52
2024-05-09T22:03:08.758Z,35.73
2024-05-09T22:05:38.856Z,35.77
2024-05-09T22:08:07.574Z,35.75
2024-05-09T22:10:36.819Z,35.76
2024-05-09T22:13:06.556Z,35.73
2024-05-09T22:15:36.432Z,35.84
2024-05-09T22:18:05.641Z,35.69
2024-05-09T22:20:38.973Z,35.86
2024-05-09T22:23:08.608Z,35.82
2024-05-09T22:25:38.227Z,35.72
2024-05-09T22:28:06.541Z,35.75
2024-05-09T22:30:38.238Z,35.85
2024-05-09T22:33:09.415Z,35.86
2024-05-09T22:35:39.200Z,35.96
2024-05-09T22:38:07.134Z,35.94
2024-05-09T22:43:06.234Z,35.91
2024-05-09T22:45:34.564Z,35.83
2024-05-09T22:48:02.639Z,35.91
2024-05-09T22:50:33.099Z,36.08
2024-05-09T22:53:01.802Z,35.99
2024-05-09T22:55:30.126Z,36.05
2024-05-09T22:57:58.118Z,36.13
2024-05-09T23:00:31.231Z,36.00
2024-05-09T23:03:01.360Z,36.04
2024-05-09T23:05:31.818Z,36.22
2024-05-09T23:08:03.536Z,36.18
2024-05-09T23:10:36.107Z,36.01
2024-05-09T23:13:07.594Z,36.16
2024-05-09T23:15:36.904Z,36.21
2024-05-09T23:18:05.478Z,36.09
2024-05-09T23:20:38.130Z,36.12
2024-05-09T23:23:08.373Z,36.05
2024-05-09T23:25:36.718Z,36.19
2024-05-09T23:28:05.297Z,36.27
2024-05-09T23:30:38.232Z,36.14
2024-05-09T23:33:12.642Z,36.24
2024-05-09T23:35:41.667Z,36.21
2024-05-09T23:38:09.650Z,36.22
2024-05-09T23:40:40.353Z,36.21
2024-05-09T23:43:10.490Z,36.29
2024-05-09T23:45:39.078Z,36.17
2024-05-09T23:48:07.855Z,36.21
2024-05-09T23:50:38.336Z,36.34
2024-05-09T23:53:09.347Z,36.21
2024-05-09T23:55:38.474Z,36.20
2024-05-09T23:58:07.405Z,36.33
